Time;durP1;ratioP1;P1;durP2;ratioP2;P2;SDS_P1;SDS_P2;PMS_P1;PMS_P2;Temp;Humidity;BMP_temperature;BMP_pressure;BME280_temperature;BME280_humidity;BME280_pressure;Samples;Min_cycle;Max_cycle;Signal;HPM_P1;HPM_P2
2022/09/25 00:00:51;;;;;;;1.00;1.00;;;14.90;99.90;;;;;;5030542;28;20576;-65
2022/09/25 00:03:21;;;;;;;1.10;1.10;;;14.90;99.90;;;;;;5028632;28;20706;-66
2022/09/25 00:05:48;;;;;;;1.30;1.10;;;14.90;99.90;;;;;;5023908;28;20651;-65
2022/09/25 00:08:16;;;;;;;1.23;1.20;;;14.90;99.90;;;;;;5029345;28;20201;-66
2022/09/25 00:10:44;;;;;;;1.00;1.00;;;15.00;99.90;;;;;;5024978;28;20652;-67
2022/09/25 00:13:11;;;;;;;0.90;0.90;;;15.00;99.90;;;;;;5029639;28;20239;-66
2022/09/25 00:15:45;;;;;;;1.17;1.07;;;15.00;99.90;;;;;;5027273;28;20227;-65
2022/09/25 00:18:11;;;;;;;1.10;1.10;;;15.00;99.90;;;;;;5031186;28;20212;-67
2022/09/25 00:20:39;;;;;;;0.80;0.80;;;15.10;99.90;;;;;;5018879;28;20244;-67
2022/09/25 00:23:05;;;;;;;1.27;0.97;;;15.10;99.90;;;;;;5022278;28;20229;-65
2022/09/25 00:25:32;;;;;;;0.90;0.90;;;15.00;99.90;;;;;;5035027;28;20710;-66
2022/09/25 00:27:59;;;;;;;1.00;1.00;;;15.10;99.90;;;;;;5031735;28;20204;-65
2022/09/25 00:30:26;;;;;;;0.97;0.97;;;15.00;99.90;;;;;;5037270;28;20205;-66
2022/09/25 00:32:53;;;;;;;0.90;0.90;;;15.00;99.90;;;;;;5032418;28;20227;-66
2022/09/25 00:35:19;;;;;;;1.07;1.07;;;14.90;99.90;;;;;;5036192;28;20566;-65
2022/09/25 00:37:47;;;;;;;1.03;1.03;;;14.90;99.90;;;;;;5034782;28;20272;-66
2022/09/25 00:40:14;;;;;;;1.00;1.00;;;14.90;99.90;;;;;;5032430;28;20204;-66
2022/09/25 00:42:41;;;;;;;0.97;0.97;;;14.90;99.90;;;;;;5029302;28;20205;-65
2022/09/25 00:45:16;;;;;;;1.00;1.00;;;14.90;99.90;;;;;;5036447;28;20262;-66
2022/09/25 00:47:54;;;;;;;1.00;1.00;;;14.80;99.90;;;;;;5035534;28;20279;-65
2022/09/25 00:50:30;;;;;;;0.83;0.83;;;14.80;99.90;;;;;;5017432;28;20209;-64
2022/09/25 00:53:05;;;;;;;1.10;1.00;;;14.80;99.90;;;;;;5014814;28;20225;-67
2022/09/25 00:55:33;;;;;;;1.00;1.00;;;14.80;99.90;;;;;;5032452;28;20555;-66
2022/09/25 00:58:03;;;;;;;0.90;0.90;;;14.90;99.90;;;;;;5039760;28;20295;-67
2022/09/25 01:00:31;;;;;;;0.90;0.90;;;14.80;99.90;;;;;;5036200;28;20204;-66
2022/09/25 01:02:58;;;;;;;1.00;1.00;;;14.80;99.90;;;;;;5031916;28;20231;-65
2022/09/25 01:05:30;;;;;;;1.00;1.00;;;14.80;99.90;;;;;;5037787;28;20291;-67
2022/09/25 01:08:01;;;;;;;1.20;1.10;;;14.90;99.90;;;;;;5031796;28;20228;-65
2022/09/25 01:10:28;;;;;;;1.10;1.10;;;14.90;99.90;;;;;;5038473;28;20201;-66
2022/09/25 01:13:00;;;;;;;1.13;1.10;;;14.90;99.90;;;;;;5036656;28;20228;-66
2022/09/25 01:15:36;;;;;;;1.10;1.10;;;14.90;99.90;;;;;;5039649;28;20272;-66
2022/09/25 01:18:13;;;;;;;1.20;1.20;;;14.90;99.90;;;;;;5030519;28;20272;-65
2022/09/25 01:21:04;;;;;;;1.10;1.10;;;14.80;99.90;;;;;;5039870;28;20200;-65
2022/09/25 01:23:54;;;;;;;1.13;1.07;;;14.80;99.90;;;;;;5027068;28;20236;-67
2022/09/25 01:26:44;;;;;;;1.10;1.10;;;14.80;99.90;;;;;;5046019;28;20200;-66
2022/09/25 01:29:17;;;;;;;1.03;1.00;;;14.90;99.90;;;;;;5030250;28;20270;-66
2022/09/25 01:31:50;;;;;;;1.00;1.00;;;14.80;99.90;;;;;;5027443;28;20292;-66
2022/09/25 01:34:22;;;;;;;1.13;1.13;;;14.80;99.90;;;;;;5036105;28;20311;-66
2022/09/25 01:36:56;;;;;;;1.17;1.10;;;14.80;99.90;;;;;;5035358;28;20205;-67
2022/09/25 01:39:31;;;;;;;1.23;1.13;;;14.80;99.90;;;;;;5034571;28;20201;-66
2022/09/25 01:42:00;;;;;;;1.40;1.30;;;14.70;99.90;;;;;;5015587;28;20582;-67
2022/09/25 01:44:31;;;;;;;1.10;1.10;;;14.70;99.90;;;;;;5030487;28;20255;-68
2022/09/25 01:47:04;;;;;;;0.90;0.90;;;14.60;99.90;;;;;;5019602;28;20205;-66
2022/09/25 01:49:35;;;;;;;1.27;0.97;;;14.70;99.90;;;;;;5021236;28;20196;-68
2022/09/25 01:52:05;;;;;;;0.87;0.87;;;14.70;99.90;;;;;;5018926;28;20211;-66
2022/09/25 01:54:36;;;;;;;1.10;1.10;;;14.70;99.90;;;;;;5029591;28;20605;-66
2022/09/25 01:57:08;;;;;;;1.00;1.00;;;14.60;99.90;;;;;;5028639;28;20201;-65
2022/09/25 01:59:41;;;;;;;1.00;1.00;;;14.50;99.90;;;;;;5021896;28;20220;-69
2022/09/25 02:02:13;;;;;;;1.07;1.07;;;14.50;99.90;;;;;;5016407;28;20205;-66
2022/09/25 02:04:43;;;;;;;0.93;0.93;;;14.60;99.90;;;;;;5014230;28;20233;-66
2022/09/25 02:07:14;;;;;;;0.90;0.90;;;14.60;99.90;;;;;;5020146;28;20207;-67
2022/09/25 02:09:45;;;;;;;0.80;0.80;;;14.60;99.90;;;;;;5024029;28;20193;-67
2022/09/25 02:12:16;;;;;;;1.20;1.10;;;14.50;99.90;;;;;;5031633;28;20586;-67
2022/09/25 02:14:48;;;;;;;1.00;1.00;;;14.60;99.90;;;;;;5025439;28;20245;-66
2022/09/25 02:20:30;;;;;;;1.00;1.00;;;14.60;99.90;;;;;;5024698;28;20728;-67
2022/09/25 02:22:55;;;;;;;0.97;0.97;;;14.60;99.90;;;;;;5026907;28;20223;-67
2022/09/25 02:25:31;;;;;;;1.00;1.00;;;14.50;99.90;;;;;;5035767;28;20224;-66
2022/09/25 02:27:58;;;;;;;1.00;1.00;;;14.50;99.90;;;;;;5027238;28;20203;-67
2022/09/25 02:30:27;;;;;;;1.40;0.90;;;14.50;99.90;;;;;;5033919;28;20291;-66
2022/09/25 02:32:56;;;;;;;0.90;0.90;;;14.50;99.90;;;;;;5006956;28;20226;-65
2022/09/25 02:35:24;;;;;;;1.17;1.07;;;14.40;99.90;;;;;;5026510;28;20678;-65
2022/09/25 02:37:51;;;;;;;1.00;1.00;;;14.40;99.90;;;;;;5026722;28;20207;-65
2022/09/25 02:40:19;;;;;;;0.87;0.87;;;14.40;99.90;;;;;;5025970;28;20205;-67
2022/09/25 02:42:50;;;;;;;1.00;1.00;;;14.30;99.90;;;;;;5028140;28;20251;-65
2022/09/25 02:45:33;;;;;;;0.83;0.83;;;14.30;99.90;;;;;;5015186;28;20594;-66
2022/09/25 02:48:08;;;;;;;1.00;1.00;;;14.30;99.90;;;;;;5018087;28;20197;-66
2022/09/25 02:50:45;;;;;;;0.90;0.90;;;14.30;99.90;;;;;;5024882;28;20197;-67
2022/09/25 02:53:18;;;;;;;0.97;0.97;;;14.30;99.90;;;;;;5019785;28;20233;-67
2022/09/25 02:55:50;;;;;;;1.00;1.00;;;14.30;99.90;;;;;;5033109;28;20656;-67
2022/09/25 02:58:23;;;;;;;0.87;0.87;;;14.30;99.90;;;;;;5033541;28;20208;-65
2022/09/25 03:00:55;;;;;;;0.90;0.90;;;14.30;99.90;;;;;;5030526;28;20204;-66
2022/09/25 03:03:25;;;;;;;0.87;0.87;;;14.40;99.90;;;;;;5037543;28;20307;-65
2022/09/25 03:05:56;;;;;;;1.03;1.03;;;14.40;99.90;;;;;;5032896;28;20222;-65
2022/09/25 03:08:40;;;;;;;1.00;1.00;;;14.40;99.90;;;;;;5034745;28;20203;-65
2022/09/25 03:11:09;;;;;;;1.00;1.00;;;14.30;99.90;;;;;;5027126;28;20205;-67
2022/09/25 03:13:36;;;;;;;1.00;1.00;;;14.20;99.90;;;;;;5031846;28;20722;-66
2022/09/25 03:16:08;;;;;;;1.10;1.10;;;14.20;99.90;;;;;;5025861;28;20205;-67
2022/09/25 03:18:35;;;;;;;1.00;1.00;;;14.20;99.90;;;;;;5030011;28;20573;-67
2022/09/25 03:21:03;;;;;;;0.90;0.90;;;14.20;99.90;;;;;;5027431;28;20660;-66
2022/09/25 03:23:30;;;;;;;0.87;0.77;;;14.20;99.90;;;;;;5030786;28;20723;-66
2022/09/25 03:25:57;;;;;;;0.93;0.93;;;14.20;99.90;;;;;;5021009;28;20716;-67
2022/09/25 03:28:24;;;;;;;1.47;1.13;;;14.10;99.90;;;;;;5030123;28;20209;-66
2022/09/25 03:30:59;;;;;;;0.90;0.90;;;14.00;99.90;;;;;;5031751;28;20242;-67
2022/09/25 03:33:28;;;;;;;0.93;0.90;;;14.00;99.90;;;;;;5019353;28;20225;-67
2022/09/25 03:36:04;;;;;;;1.07;1.07;;;14.00;99.90;;;;;;5032400;28;20197;-67
2022/09/25 03:38:31;;;;;;;0.87;0.87;;;14.00;99.90;;;;;;5020647;28;20207;-62
2022/09/25 03:40:57;;;;;;;0.93;0.93;;;14.00;99.90;;;;;;5033343;28;20410;-66
2022/09/25 03:43:24;;;;;;;0.77;0.77;;;14.00;99.90;;;;;;5025368;28;20221;-66
2022/09/25 03:45:51;;;;;;;0.90;0.90;;;14.00;99.90;;;;;;5033480;28;20239;-67
2022/09/25 03:48:18;;;;;;;1.10;1.10;;;13.90;99.90;;;;;;5028397;28;20201;-66
2022/09/25 03:50:48;;;;;;;1.43;1.20;;;14.00;99.90;;;;;;5028886;28;20208;-66
2022/09/25 03:53:16;;;;;;;0.80;0.80;;;13.90;99.90;;;;;;5027896;28;20745;-67
2022/09/25 03:55:45;;;;;;;0.90;0.90;;;13.80;99.90;;;;;;5031268;28;20583;-67
2022/09/25 03:58:13;;;;;;;0.80;0.80;;;13.90;99.90;;;;;;5028997;28;20219;-66
2022/09/25 04:00:40;;;;;;;0.80;0.80;;;13.90;99.90;;;;;;5024703;28;20220;-67
2022/09/25 04:03:07;;;;;;;1.10;1.10;;;14.00;99.90;;;;;;5030051;28;20220;-66
2022/09/25 04:05:34;;;;;;;0.80;0.80;;;14.00;99.90;;;;;;5025484;28;20779;-67
2022/09/25 04:08:03;;;;;;;0.83;0.83;;;13.90;99.90;;;;;;5030395;28;20201;-66
2022/09/25 04:10:30;;;;;;;1.00;1.00;;;13.90;99.90;;;;;;5026918;28;20668;-67
2022/09/25 04:12:57;;;;;;;0.87;0.87;;;13.80;99.90;;;;;;5022577;28;20239;-67
2022/09/25 04:15:24;;;;;;;0.80;0.80;;;13.80;99.90;;;;;;5028641;28;20208;-66
2022/09/25 04:17:51;;;;;;;0.70;0.70;;;13.80;99.90;;;;;;5023714;28;20227;-65
2022/09/25 04:20:19;;;;;;;1.00;1.00;;;13.70;99.90;;;;;;5029170;28;20579;-67
2022/09/25 04:22:45;;;;;;;0.90;0.90;;;13.70;99.90;;;;;;5025110;28;20221;-66
2022/09/25 04:25:14;;;;;;;0.90;0.90;;;13.60;99.90;;;;;;5029297;28;20225;-66
2022/09/25 04:27:44;;;;;;;0.80;0.80;;;13.50;99.90;;;;;;5027095;28;20205;-68
2022/09/25 04:30:11;;;;;;;0.90;0.90;;;13.50;99.90;;;;;;5030476;28;20205;-67
2022/09/25 04:35:22;;;;;;;0.70;0.70;;;13.50;99.90;;;;;;5026602;28;20199;-67
2022/09/25 04:37:49;;;;;;;0.90;0.90;;;13.50;99.90;;;;;;5027618;28;20210;-64
2022/09/25 04:40:17;;;;;;;1.00;1.00;;;13.60;99.90;;;;;;5026525;28;20207;-67
2022/09/25 04:42:44;;;;;;;0.80;0.80;;;13.60;99.90;;;;;;5029359;28;20616;-66
2022/09/25 04:45:11;;;;;;;0.70;0.70;;;13.60;99.90;;;;;;5026788;28;20224;-66
2022/09/25 04:47:38;;;;;;;0.90;0.90;;;13.60;99.90;;;;;;5030192;28;20204;-66
2022/09/25 04:50:05;;;;;;;0.90;0.90;;;13.60;99.90;;;;;;5027555;28;20223;-66
2022/09/25 04:52:32;;;;;;;0.90;0.90;;;13.50;99.90;;;;;;5020108;28;20201;-66
2022/09/25 04:55:00;;;;;;;1.80;0.90;;;13.50;99.90;;;;;;5032327;28;20203;-67
2022/09/25 04:57:28;;;;;;;1.27;1.00;;;13.50;99.90;;;;;;5025435;28;20674;-67
2022/09/25 04:59:54;;;;;;;0.90;0.90;;;13.60;99.90;;;;;;5024193;28;20205;-67
2022/09/25 05:02:27;;;;;;;0.90;0.90;;;13.60;99.90;;;;;;5027400;28;20666;-66
2022/09/25 05:04:54;;;;;;;0.90;0.90;;;13.70;99.90;;;;;;5025205;28;20220;-65
2022/09/25 05:07:21;;;;;;;0.80;0.80;;;13.70;99.90;;;;;;5030995;28;20287;-67
2022/09/25 05:09:49;;;;;;;0.80;0.80;;;13.70;99.90;;;;;;5025092;28;20232;-66
2022/09/25 05:12:15;;;;;;;0.80;0.80;;;13.70;99.90;;;;;;5031758;28;20283;-65
2022/09/25 05:14:43;;;;;;;0.50;0.50;;;13.70;99.90;;;;;;5025280;28;20739;-66
2022/09/25 05:17:11;;;;;;;0.77;0.77;;;13.80;99.90;;;;;;5024678;28;20207;-66
2022/09/25 05:19:38;;;;;;;0.83;0.83;;;13.80;99.90;;;;;;5026105;28;20600;-66
2022/09/25 05:22:04;;;;;;;0.80;0.80;;;13.80;99.90;;;;;;5027282;28;20217;-67
2022/09/25 05:24:31;;;;;;;0.97;0.97;;;13.90;99.90;;;;;;5028475;28;20221;-65
2022/09/25 05:26:58;;;;;;;0.97;0.97;;;13.80;99.90;;;;;;5027354;28;20205;-67
2022/09/25 05:29:25;;;;;;;0.90;0.90;;;13.80;99.90;;;;;;5029740;28;20263;-67
2022/09/25 05:31:55;;;;;;;0.90;0.90;;;13.90;99.90;;;;;;5026339;28;20208;-67
2022/09/25 05:34:22;;;;;;;0.90;0.90;;;13.90;99.90;;;;;;5023718;28;20794;-67
2022/09/25 05:36:49;;;;;;;0.90;0.90;;;13.90;99.90;;;;;;5026587;28;20218;-67
2022/09/25 05:39:16;;;;;;;0.90;0.90;;;13.90;99.90;;;;;;5025179;28;20208;-67
2022/09/25 05:41:42;;;;;;;1.00;1.00;;;14.00;99.90;;;;;;5027063;28;20202;-67
2022/09/25 05:44:09;;;;;;;1.10;1.10;;;13.90;99.90;;;;;;5025619;28;20228;-65
2022/09/25 05:46:36;;;;;;;1.10;1.10;;;14.00;99.90;;;;;;5028320;28;20596;-67
2022/09/25 05:49:05;;;;;;;1.00;1.00;;;14.00;99.90;;;;;;5026418;28;20235;-67
2022/09/25 05:51:32;;;;;;;1.00;1.00;;;13.90;99.90;;;;;;5031199;28;20201;-66
2022/09/25 05:54:00;;;;;;;1.20;1.20;;;14.00;99.90;;;;;;5025230;28;20876;-68
2022/09/25 05:56:26;;;;;;;0.90;0.90;;;14.00;99.90;;;;;;5029133;28;20612;-67
2022/09/25 05:58:54;;;;;;;1.00;1.00;;;14.00;99.90;;;;;;5024973;28;20196;-67
2022/09/25 06:01:21;;;;;;;1.30;1.20;;;14.00;99.90;;;;;;5033391;28;20204;-67
2022/09/25 06:03:48;;;;;;;0.93;0.93;;;14.10;99.90;;;;;;5033942;28;20225;-67
2022/09/25 06:06:16;;;;;;;1.17;1.17;;;14.20;99.90;;;;;;5026562;28;20233;-67
2022/09/25 06:08:43;;;;;;;1.33;1.30;;;14.20;99.90;;;;;;5032933;28;20287;-67
2022/09/25 06:11:10;;;;;;;1.27;1.27;;;14.10;99.90;;;;;;5032285;28;20200;-67
2022/09/25 06:13:37;;;;;;;1.10;1.10;;;14.10;99.90;;;;;;5026402;28;20237;-68
2022/09/25 06:16:05;;;;;;;1.00;1.00;;;14.10;99.90;;;;;;5028569;28;20664;-67
2022/09/25 06:18:32;;;;;;;1.13;1.10;;;14.20;99.90;;;;;;5032159;28;20204;-66
2022/09/25 06:21:01;;;;;;;1.03;1.03;;;14.30;99.90;;;;;;5035389;28;20197;-67
2022/09/25 06:23:29;;;;;;;1.20;1.20;;;14.40;99.90;;;;;;5038035;28;20224;-66
2022/09/25 06:26:00;;;;;;;0.93;0.93;;;14.50;99.90;;;;;;5041227;28;20220;-66
2022/09/25 06:28:28;;;;;;;1.00;1.00;;;14.50;99.90;;;;;;5032674;28;20208;-66
2022/09/25 06:30:54;;;;;;;1.00;1.00;;;14.50;99.90;;;;;;5029433;28;20695;-67
2022/09/25 06:33:21;;;;;;;1.00;1.00;;;14.50;99.90;;;;;;5021634;28;20229;-66
2022/09/25 06:35:48;;;;;;;0.90;0.90;;;14.50;99.90;;;;;;5031992;28;20300;-67
2022/09/25 06:38:16;;;;;;;0.90;0.90;;;14.60;99.90;;;;;;5027693;28;20252;-66
2022/09/25 06:40:44;;;;;;;1.00;1.00;;;14.60;99.90;;;;;;5032916;28;20656;-66
2022/09/25 06:43:13;;;;;;;1.00;1.00;;;14.50;99.90;;;;;;5029340;28;20217;-66
2022/09/25 06:45:40;;;;;;;0.93;0.93;;;14.50;99.90;;;;;;5034874;28;20228;-68
2022/09/25 06:48:10;;;;;;;1.00;1.00;;;14.50;99.90;;;;;;5026859;28;20236;-68
2022/09/25 06:50:41;;;;;;;1.03;1.03;;;14.60;99.90;;;;;;5018394;28;20201;-66
2022/09/25 06:53:08;;;;;;;1.00;1.00;;;14.60;99.90;;;;;;5013354;28;20236;-66
2022/09/25 06:55:36;;;;;;;0.80;0.80;;;14.60;99.90;;;;;;5022788;28;20202;-67
2022/09/25 06:58:05;;;;;;;0.90;0.90;;;14.50;99.90;;;;;;5020767;28;20208;-68
2022/09/25 07:00:33;;;;;;;0.80;0.80;;;14.50;99.90;;;;;;5023052;28;20212;-67
2022/09/25 07:05:47;;;;;;;0.93;0.93;;;14.50;99.90;;;;;;5025023;28;20617;-66
2022/09/25 07:08:14;;;;;;;0.90;0.90;;;14.50;99.90;;;;;;5014704;28;20299;-65
2022/09/25 07:10:47;;;;;;;1.10;1.10;;;14.50;99.90;;;;;;5023845;28;20244;-66
2022/09/25 07:13:16;;;;;;;0.90;0.90;;;14.50;99.90;;;;;;5014222;28;20237;-66
2022/09/25 07:15:43;;;;;;;1.10;1.10;;;14.50;99.90;;;;;;5014203;28;20193;-68
2022/09/25 07:18:10;;;;;;;0.90;0.90;;;14.50;99.90;;;;;;5017783;28;20216;-66
2022/09/25 07:20:37;;;;;;;0.90;0.90;;;14.50;99.90;;;;;;5017342;28;20248;-65
2022/09/25 07:23:04;;;;;;;1.00;1.00;;;14.50;99.90;;;;;;5019106;28;20233;-66
2022/09/25 07:25:31;;;;;;;0.80;0.80;;;14.50;99.90;;;;;;5027421;28;20230;-67
2022/09/25 07:27:58;;;;;;;0.90;0.90;;;14.60;99.90;;;;;;5032919;28;20208;-67
2022/09/25 07:30:29;;;;;;;0.80;0.80;;;14.70;99.90;;;;;;5036951;28;20206;-66
2022/09/25 07:32:57;;;;;;;0.90;0.90;;;14.90;99.90;;;;;;5031581;28;20225;-69
2022/09/25 07:35:23;;;;;;;1.00;1.00;;;14.80;99.90;;;;;;5011408;28;20201;-67
2022/09/25 07:37:50;;;;;;;1.13;1.10;;;14.80;99.90;;;;;;5024092;28;20219;-66
2022/09/25 07:40:17;;;;;;;0.90;0.90;;;14.90;99.90;;;;;;5028167;28;20213;-68
2022/09/25 07:42:44;;;;;;;1.00;1.00;;;14.90;99.90;;;;;;5030702;28;20205;-68
2022/09/25 07:45:11;;;;;;;1.33;1.33;;;14.90;99.90;;;;;;5028688;28;20204;-66
2022/09/25 07:47:39;;;;;;;1.40;1.33;;;15.00;99.90;;;;;;5030876;28;20201;-66
2022/09/25 07:50:07;;;;;;;1.10;1.00;;;15.00;99.90;;;;;;5028706;28;20697;-67
2022/09/25 07:52:34;;;;;;;1.00;1.00;;;15.00;99.90;;;;;;5026099;28;20204;-67
2022/09/25 07:55:01;;;;;;;1.27;1.27;;;15.00;99.90;;;;;;5036700;28;20205;-67
2022/09/25 07:57:28;;;;;;;1.63;1.53;;;14.90;99.90;;;;;;5029463;28;20193;-66
2022/09/25 07:59:55;;;;;;;1.40;1.40;;;15.00;99.90;;;;;;5027558;28;20204;-67
2022/09/25 08:02:22;;;;;;;1.30;1.30;;;15.00;99.90;;;;;;5029366;28;20212;-68
2022/09/25 08:04:50;;;;;;;2.00;1.90;;;15.00;99.90;;;;;;5026056;28;20229;-65
2022/09/25 08:07:17;;;;;;;1.50;1.50;;;15.00;99.90;;;;;;5030974;28;20235;-67
2022/09/25 08:09:44;;;;;;;2.00;1.90;;;15.00;99.90;;;;;;5025911;28;20284;-68
2022/09/25 08:12:12;;;;;;;1.90;1.80;;;15.00;99.90;;;;;;5033376;28;20204;-67
2022/09/25 08:14:40;;;;;;;2.00;1.90;;;15.00;99.90;;;;;;5029239;28;20224;-66
2022/09/25 08:17:07;;;;;;;2.10;2.00;;;15.00;99.90;;;;;;5033607;28;20677;-67
2022/09/25 08:19:34;;;;;;;2.20;2.10;;;15.00;99.90;;;;;;5033505;28;20230;-67
2022/09/25 08:22:02;;;;;;;2.50;2.40;;;15.00;99.90;;;;;;5033584;28;20196;-67
2022/09/25 08:24:29;;;;;;;2.53;2.43;;;15.00;99.90;;;;;;5033346;28;20706;-66
2022/09/25 08:26:56;;;;;;;2.30;2.20;;;15.00;99.90;;;;;;5033212;28;20323;-66
2022/09/25 08:29:23;;;;;;;2.40;2.30;;;15.10;99.90;;;;;;5033238;28;20270;-67
2022/09/25 08:31:50;;;;;;;2.37;2.27;;;15.20;99.90;;;;;;5024367;28;20279;-66
2022/09/25 08:34:17;;;;;;;2.73;2.53;;;15.20;99.90;;;;;;5015698;28;20222;-68
2022/09/25 08:36:44;;;;;;;2.17;2.07;;;15.10;99.90;;;;;;5024898;28;20292;-68
2022/09/25 08:39:12;;;;;;;2.40;2.30;;;15.10;99.90;;;;;;5038152;28;21041;-68
2022/09/25 08:41:47;;;;;;;2.33;2.23;;;15.20;99.90;;;;;;5034655;28;20288;-65
2022/09/25 08:44:24;;;;;;;2.50;2.40;;;15.20;99.90;;;;;;5030942;28;20236;-69
2022/09/25 08:49:45;;;;;;;2.47;2.37;;;15.30;99.90;;;;;;5027432;28;20204;-68
2022/09/25 08:52:16;;;;;;;2.40;2.30;;;15.30;99.90;;;;;;5024283;28;20260;-67
2022/09/25 08:54:44;;;;;;;2.30;2.20;;;15.40;99.90;;;;;;5011124;28;20225;-66
2022/09/25 08:57:18;;;;;;;2.03;1.93;;;15.20;99.90;;;;;;5019252;28;20663;-66
2022/09/25 08:59:51;;;;;;;2.30;2.20;;;15.30;99.90;;;;;;5008591;28;20206;-68
2022/09/25 09:02:21;;;;;;;2.40;2.30;;;15.60;99.90;;;;;;5032137;28;20211;-67
2022/09/25 09:04:51;;;;;;;2.30;2.20;;;15.60;99.90;;;;;;5047735;28;20733;-65
2022/09/25 09:07:24;;;;;;;2.70;2.60;;;15.40;99.90;;;;;;5037746;28;20259;-67
2022/09/25 09:09:57;;;;;;;2.87;2.67;;;15.50;99.90;;;;;;5044406;28;20258;-68
2022/09/25 09:12:28;;;;;;;2.83;2.73;;;15.40;99.90;;;;;;5042220;28;20227;-66
2022/09/25 09:15:06;;;;;;;2.40;2.30;;;15.50;99.90;;;;;;5032904;28;20290;-66
2022/09/25 09:17:41;;;;;;;2.67;2.57;;;15.60;99.90;;;;;;5030915;28;20197;-67
2022/09/25 09:20:16;;;;;;;2.47;2.37;;;15.70;99.90;;;;;;5028873;28;20214;-68
2022/09/25 09:22:49;;;;;;;2.10;2.00;;;16.00;99.90;;;;;;5030026;28;20204;-67
2022/09/25 09:25:27;;;;;;;2.57;2.47;;;16.30;99.90;;;;;;5027824;28;20208;-68
2022/09/25 09:28:12;;;;;;;2.47;2.37;;;16.60;99.90;;;;;;5025343;28;20702;-67
2022/09/25 09:30:46;;;;;;;2.73;2.63;;;16.90;99.90;;;;;;5030559;28;20204;-67
2022/09/25 09:33:25;;;;;;;2.50;2.40;;;17.20;99.90;;;;;;5014964;28;20224;-67
2022/09/25 09:36:13;;;;;;;2.67;2.57;;;17.40;99.90;;;;;;5017409;28;20672;-67
2022/09/25 09:38:47;;;;;;;2.60;2.50;;;17.30;99.90;;;;;;5012548;28;20343;-66
2022/09/25 09:41:29;;;;;;;2.40;2.30;;;17.10;99.90;;;;;;5011186;28;20201;-66
2022/09/25 09:44:21;;;;;;;2.80;2.60;;;17.10;99.90;;;;;;5012731;28;20225;-67
2022/09/25 09:47:01;;;;;;;2.20;2.10;;;17.00;99.90;;;;;;5012430;28;20217;-68
2022/09/25 09:49:34;;;;;;;2.40;2.30;;;17.00;99.90;;;;;;5021003;28;20204;-66
2022/09/25 09:52:08;;;;;;;2.40;2.30;;;17.20;99.90;;;;;;5017764;28;20201;-67
2022/09/25 09:54:41;;;;;;;2.50;2.40;;;17.40;99.90;;;;;;5028104;28;20235;-68
2022/09/25 09:57:17;;;;;;;2.47;2.37;;;17.50;99.90;;;;;;5026894;28;20224;-65
2022/09/25 09:59:49;;;;;;;2.30;2.20;;;18.00;99.90;;;;;;5021875;28;20595;-66
2022/09/25 10:02:27;;;;;;;2.20;2.10;;;18.40;99.90;;;;;;5027364;28;20565;-66
2022/09/25 10:04:55;;;;;;;2.70;2.60;;;18.50;99.90;;;;;;5024809;28;20606;-66
2022/09/25 10:07:23;;;;;;;2.70;2.60;;;18.20;99.90;;;;;;5028017;28;20315;-66
2022/09/25 10:09:50;;;;;;;2.70;2.50;;;17.90;99.90;;;;;;5027925;28;20291;-66
2022/09/25 10:12:28;;;;;;;2.90;2.70;;;17.60;99.90;;;;;;5037150;28;20212;-66
2022/09/25 10:14:57;;;;;;;2.70;2.60;;;17.40;99.90;;;;;;5033591;28;20279;-67
2022/09/25 10:17:25;;;;;;;3.03;2.93;;;17.10;99.90;;;;;;5031060;28;20200;-65
2022/09/25 10:19:54;;;;;;;3.13;2.97;;;17.00;99.90;;;;;;5033317;28;20620;-67
2022/09/25 10:22:25;;;;;;;3.10;2.90;;;16.80;99.90;;;;;;5032601;28;20208;-67
2022/09/25 10:24:57;;;;;;;2.53;2.43;;;16.60;99.90;;;;;;5017291;28;20220;-67
2022/09/25 10:27:30;;;;;;;2.77;2.57;;;16.60;99.90;;;;;;5033713;28;20303;-67
2022/09/25 10:30:12;;;;;;;2.77;2.57;;;16.60;99.90;;;;;;5047938;28;20204;-68
2022/09/25 10:32:43;;;;;;;2.93;2.73;;;16.40;99.90;;;;;;5047072;28;20200;-67
2022/09/25 10:35:15;;;;;;;2.50;2.40;;;16.50;99.90;;;;;;5042819;28;20232;-66
2022/09/25 10:37:43;;;;;;;2.87;2.67;;;16.40;99.90;;;;;;5050929;28;20223;-64
2022/09/25 10:40:24;;;;;;;2.80;2.60;;;16.30;99.90;;;;;;5048948;28;20216;-67
2022/09/25 10:43:03;;;;;;;2.30;2.20;;;16.30;99.90;;;;;;5046988;28;20311;-67
2022/09/25 10:45:32;;;;;;;2.93;2.73;;;16.30;99.90;;;;;;5028646;28;20201;-65
2022/09/25 10:50:44;;;;;;;2.63;2.53;;;16.20;99.90;;;;;;5020669;28;20204;-67
2022/09/25 10:53:28;;;;;;;3.20;3.00;;;16.10;99.90;;;;;;5028176;28;20229;-68
2022/09/25 10:56:01;;;;;;;2.63;2.53;;;16.10;99.90;;;;;;5020275;28;20216;-68
2022/09/25 10:58:36;;;;;;;3.00;2.80;;;16.10;99.90;;;;;;5033640;28;20204;-66
2022/09/25 11:01:04;;;;;;;3.30;3.10;;;16.10;99.90;;;;;;5021614;28;20318;-67
2022/09/25 11:03:33;;;;;;;2.90;2.80;;;16.00;99.90;;;;;;5033489;28;20224;-67
2022/09/25 11:06:04;;;;;;;2.90;2.80;;;16.00;99.90;;;;;;5030576;28;20204;-67
2022/09/25 11:08:36;;;;;;;3.10;2.90;;;15.90;99.90;;;;;;5035438;28;20211;-66
2022/09/25 11:11:04;;;;;;;3.20;3.00;;;15.90;99.90;;;;;;5026459;28;20232;-67
2022/09/25 11:13:40;;;;;;;3.10;2.93;;;15.90;99.90;;;;;;5032414;28;20240;-67
2022/09/25 11:16:09;;;;;;;3.10;2.90;;;15.90;99.90;;;;;;5028667;28;20208;-65
2022/09/25 11:18:39;;;;;;;2.97;2.87;;;16.00;99.90;;;;;;5026306;28;20247;-64
2022/09/25 11:21:17;;;;;;;3.20;3.00;;;16.10;99.90;;;;;;5029297;28;20660;-67
2022/09/25 11:23:58;;;;;;;3.13;2.93;;;16.00;99.90;;;;;;5033891;28;20229;-66
2022/09/25 11:26:31;;;;;;;3.10;2.90;;;16.00;99.90;;;;;;5018953;28;20224;-65
2022/09/25 11:29:06;;;;;;;3.30;3.10;;;15.80;99.90;;;;;;5025774;28;20200;-66
2022/09/25 11:31:36;;;;;;;3.00;2.90;;;15.70;99.90;;;;;;5026661;28;20193;-64
2022/09/25 11:34:15;;;;;;;3.07;2.93;;;15.60;99.90;;;;;;5026610;28;20228;-65
2022/09/25 11:36:46;;;;;;;3.27;3.07;;;15.50;99.90;;;;;;5028412;28;20205;-65
2022/09/25 11:42:09;;;;;;;2.90;2.80;;;15.50;99.90;;;;;;5030483;28;20301;-65
2022/09/25 11:44:43;;;;;;;2.90;2.80;;;15.60;99.90;;;;;;5028126;28;20347;-67
2022/09/25 11:47:17;;;;;;;2.97;2.87;;;15.50;99.90;;;;;;5031298;28;20240;-67
2022/09/25 11:49:50;;;;;;;2.93;2.80;;;15.60;99.90;;;;;;5020894;28;20204;-65
2022/09/25 11:52:28;;;;;;;3.07;2.97;;;15.50;99.90;;;;;;5018143;28;20206;-66
2022/09/25 11:55:17;;;;;;;3.20;3.00;;;15.50;99.90;;;;;;5033444;28;20203;-66
2022/09/25 11:57:56;;;;;;;3.00;2.80;;;15.60;99.90;;;;;;5021755;28;20581;-65
2022/09/25 12:00:33;;;;;;;2.93;2.83;;;15.50;99.90;;;;;;5025205;28;20204;-66
2022/09/25 12:03:17;;;;;;;2.93;2.83;;;15.60;99.90;;;;;;5021050;28;20220;-66
2022/09/25 12:06:01;;;;;;;3.03;2.83;;;15.60;99.90;;;;;;5026683;28;20307;-65
2022/09/25 12:08:47;;;;;;;3.33;3.13;;;15.70;99.90;;;;;;5030007;28;20224;-65
2022/09/25 12:11:23;;;;;;;2.80;2.70;;;15.70;99.90;;;;;;5023790;28;20211;-67
2022/09/25 12:13:55;;;;;;;3.03;2.87;;;15.80;99.90;;;;;;5021311;28;20232;-67
2022/09/25 12:16:33;;;;;;;3.13;2.93;;;15.90;99.90;;;;;;5019336;28;20209;-65
2022/09/25 12:19:22;;;;;;;3.40;3.20;;;16.00;99.90;;;;;;5016481;28;20199;-64
2022/09/25 12:21:53;;;;;;;2.90;2.80;;;16.10;99.90;;;;;;5013492;28;20205;-68
2022/09/25 12:24:32;;;;;;;2.80;2.70;;;16.30;99.90;;;;;;5016581;28;20221;-66
2022/09/25 12:27:08;;;;;;;2.40;2.30;;;16.20;99.90;;;;;;5015065;28;20221;-65
2022/09/25 12:29:51;;;;;;;2.73;2.63;;;16.30;99.90;;;;;;5017874;28;20213;-69
2022/09/25 12:32:27;;;;;;;2.83;2.73;;;16.40;99.90;;;;;;5020605;28;20204;-66
2022/09/25 12:35:09;;;;;;;3.03;2.90;;;16.50;99.90;;;;;;5030192;28;20236;-67
2022/09/25 12:37:42;;;;;;;2.60;2.50;;;16.50;99.90;;;;;;5025821;28;20259;-67
2022/09/25 12:40:17;;;;;;;2.83;2.63;;;16.60;99.90;;;;;;5025872;28;20209;-66
2022/09/25 12:42:52;;;;;;;3.40;3.20;;;16.80;99.90;;;;;;5017850;28;20205;-67
2022/09/25 12:45:24;;;;;;;3.20;3.00;;;16.90;99.90;;;;;;5020212;28;20203;-65
2022/09/25 12:48:04;;;;;;;2.30;2.20;;;16.90;99.90;;;;;;5020252;28;20213;-66
2022/09/25 12:50:37;;;;;;;2.73;2.53;;;17.00;99.90;;;;;;5011608;28;20201;-65
2022/09/25 12:53:13;;;;;;;2.33;2.23;;;17.10;99.90;;;;;;5019010;28;20236;-66
2022/09/25 12:55:44;;;;;;;2.93;2.73;;;17.20;99.90;;;;;;5014280;28;20292;-67
2022/09/25 12:58:20;;;;;;;2.60;2.50;;;17.20;99.90;;;;;;5012114;28;20208;-66
2022/09/25 13:00:51;;;;;;;2.93;2.80;;;17.30;99.90;;;;;;5019783;28;20561;-67
2022/09/25 13:03:26;;;;;;;3.17;2.97;;;17.30;99.90;;;;;;5028711;28;20231;-65
2022/09/25 13:06:03;;;;;;;3.30;3.20;;;17.40;99.90;;;;;;5024985;28;20211;-67
2022/09/25 13:08:37;;;;;;;2.90;2.80;;;17.40;99.90;;;;;;5028742;28;20224;-66
2022/09/25 13:11:10;;;;;;;2.90;2.80;;;17.30;99.90;;;;;;5023590;28;20200;-67
2022/09/25 13:13:44;;;;;;;2.30;2.20;;;17.30;99.90;;;;;;5014768;28;20233;-66
2022/09/25 13:16:13;;;;;;;2.57;2.47;;;17.30;99.90;;;;;;5011318;28;20213;-66
2022/09/25 13:18:48;;;;;;;2.43;2.33;;;17.40;99.90;;;;;;5025394;28;20227;-67
2022/09/25 13:21:29;;;;;;;2.60;2.50;;;17.30;99.90;;;;;;5022409;28;20212;-66
2022/09/25 13:23:59;;;;;;;2.30;2.20;;;17.30;99.90;;;;;;5030044;28;20259;-68